Portada
METAR-TAF:

METAR-TAF

Aeropuertos :

Carcasona, Francia

latitud: 43-13N, longitud: 002-19E, altitud: 130 m

Observación

El informe se hizo hace 12 horas y 42 minutos, a las 10:00 UTC
Viento 5 kt del oeste-noroeste, variando entre oeste-suroeste y norte-noroeste
Temperatura 24°C
Humedad 65%
Presión 1014 hPa
Visibilidad 10 km o más
Cielo cubierto a una altura de 3800 ft

METAR: LFMK 221000Z AUTO 29005KT 240V330 9999 OVC038 24/17 Q1014 NOSIG

Hora: 00:42 (22:42 UTC)

Pronóstico

El informe se hizo hace 8 horas y 42 minutos, a las 14:00 UTC
Pronóstico válido del 22 a las 15 UTC al 23 a las 15 UTC
Viento 10 kt del oeste-noroeste
Visibilidad 10 km o más
Cielo nuboso a una altura de 4000 ft
Evolucionando progresivamente
del 23 a las 08 UTC al 23 a las 10 UTC
Visibilidad 10 km o más
sin nubes por debajo de 1500 m y sin presencia de cumulonimbus.

TAF: LFMK 221400Z 2215/2315 29010KT 9999 BKN040 BECMG 2308/2310 CAVOK

Observaciones y pronósticos meteorológicos de más de 4000 aeropuertos (mensajes METAR y TAF).

Los puntos amarillos y rojos representan las estaciones disponibles.

Ponga el ratón en el punto deseado para ver el nombre de la estación.

Haga clic para ver las observaciones y los pronósticos meteorológicos.

Para cambiar el mapa : haga clic en los botones verdes con una cruz de color negro para hacer un zoom, en el botón verde con un guión para alejar o en las flechas verdes para mapas adyacentes.


METAR-TAF: